Time;durP1;ratioP1;P1;durP2;ratioP2;P2;SDS_P1;SDS_P2;PMS_P1;PMS_P2;Temp;Humidity;BMP_temperature;BMP_pressure;BME280_temperature;BME280_humidity;BME280_pressure;Samples;Min_cycle;Max_cycle;Signal;HPM_P1;HPM_P2
2022/02/20 00:00:04;;;;;;;9.95;2.13;;;;;;;;;;4980350;28;20049;-67
2022/02/20 00:02:31;;;;;;;6.50;1.30;;;;;;;;;;4975262;28;20050;-69
2022/02/20 00:04:57;;;;;;;13.40;1.40;;;;;;;;;;4966663;28;20295;-68
2022/02/20 00:07:24;;;;;;;8.43;1.40;;;;;;;;;;4974474;28;20070;-69
2022/02/20 00:09:50;;;;;;;11.68;1.75;;;;;;;;;;4980371;28;20073;-69
2022/02/20 00:12:17;;;;;;;9.35;1.52;;;;;;;;;;4966452;28;20507;-69
2022/02/20 00:14:43;;;;;;;9.57;1.55;;;;;;;;;;4987477;28;20054;-70
2022/02/20 00:17:09;;;;;;;9.57;1.80;;;;;;;;;;4972429;28;20046;-69
2022/02/20 00:19:35;;;;;;;10.23;1.77;;;;;;;;;;4966167;28;20057;-70
2022/02/20 00:22:02;;;;;;;11.52;1.23;;;;;;;;;;4970204;28;20774;-69
2022/02/20 00:24:28;;;;;;;6.60;1.15;;;;;;;;;;4970443;28;20487;-69
2022/02/20 00:26:55;;;;;;;7.40;1.50;;;;;;;;;;4978842;28;20046;-69
2022/02/20 00:29:21;;;;;;;3.88;1.25;;;;;;;;;;4972198;28;20065;-70
2022/02/20 00:31:47;;;;;;;5.70;1.20;;;;;;;;;;4977158;28;20050;-69
2022/02/20 00:34:14;;;;;;;4.22;1.25;;;;;;;;;;4964208;28;20050;-69
2022/02/20 00:36:40;;;;;;;10.23;1.40;;;;;;;;;;4976899;28;20046;-67
2022/02/20 00:39:06;;;;;;;6.03;0.95;;;;;;;;;;4976120;28;20077;-67
2022/02/20 00:41:33;;;;;;;7.35;1.05;;;;;;;;;;4986433;28;20089;-67
2022/02/20 00:44:00;;;;;;;6.28;1.23;;;;;;;;;;4984596;28;20140;-67
2022/02/20 00:46:26;;;;;;;4.80;0.85;;;;;;;;;;4994546;28;20050;-67
2022/02/20 00:48:52;;;;;;;3.97;1.00;;;;;;;;;;4985999;28;20491;-68
2022/02/20 00:51:19;;;;;;;7.40;0.90;;;;;;;;;;4978581;28;20523;-67
2022/02/20 00:53:45;;;;;;;4.45;0.82;;;;;;;;;;4983426;28;20054;-68
2022/02/20 00:56:11;;;;;;;3.83;0.70;;;;;;;;;;4975206;28;20042;-67
2022/02/20 00:58:38;;;;;;;6.05;0.82;;;;;;;;;;4981525;28;20054;-67
2022/02/20 01:01:04;;;;;;;8.45;0.85;;;;;;;;;;4987197;28;20582;-67
2022/02/20 01:03:31;;;;;;;5.90;0.90;;;;;;;;;;4980196;28;20050;-67
2022/02/20 01:05:57;;;;;;;9.55;0.90;;;;;;;;;;4986333;28;20053;-67
2022/02/20 01:08:24;;;;;;;5.93;1.10;;;;;;;;;;4976827;28;20058;-67
2022/02/20 01:10:50;;;;;;;5.97;0.95;;;;;;;;;;4986909;28;20069;-68
2022/02/20 01:13:16;;;;;;;5.22;0.82;;;;;;;;;;4974255;28;20722;-67
2022/02/20 01:15:43;;;;;;;3.80;0.80;;;;;;;;;;4981661;28;20051;-67
2022/02/20 01:18:09;;;;;;;6.55;1.00;;;;;;;;;;4983285;28;20055;-67
2022/02/20 01:20:35;;;;;;;5.35;0.98;;;;;;;;;;4962551;28;20640;-67
2022/02/20 01:23:02;;;;;;;8.38;0.90;;;;;;;;;;4981529;28;20062;-67
2022/02/20 01:25:28;;;;;;;3.75;0.95;;;;;;;;;;4973773;28;20046;-67
2022/02/20 01:27:57;;;;;;;4.05;0.80;;;;;;;;;;4986382;28;20197;-67
2022/02/20 01:30:23;;;;;;;5.82;1.23;;;;;;;;;;4978036;28;20055;-68
2022/02/20 01:32:49;;;;;;;3.35;1.00;;;;;;;;;;4982578;28;20053;-67
2022/02/20 01:35:15;;;;;;;6.95;0.95;;;;;;;;;;4982496;28;20052;-67
2022/02/20 01:37:42;;;;;;;7.50;0.95;;;;;;;;;;4989662;28;20435;-68
2022/02/20 01:40:08;;;;;;;4.13;0.88;;;;;;;;;;4977631;28;20051;-68
2022/02/20 01:42:35;;;;;;;6.60;1.00;;;;;;;;;;4970994;28;20456;-67
2022/02/20 01:45:01;;;;;;;8.55;0.82;;;;;;;;;;4984968;28;20047;-67
2022/02/20 01:47:29;;;;;;;3.97;0.80;;;;;;;;;;4977845;28;20057;-67
2022/02/20 01:49:56;;;;;;;6.03;0.93;;;;;;;;;;4977116;28;20061;-67
2022/02/20 01:52:22;;;;;;;2.83;0.90;;;;;;;;;;4985726;28;20574;-68
2022/02/20 01:54:51;;;;;;;5.72;1.20;;;;;;;;;;4978836;28;20051;-68
2022/02/20 01:57:18;;;;;;;2.72;0.93;;;;;;;;;;4984934;28;20057;-67
2022/02/20 01:59:44;;;;;;;5.90;1.77;;;;;;;;;;4979886;28;20050;-68
2022/02/20 02:02:10;;;;;;;4.88;1.02;;;;;;;;;;4977126;28;20065;-67
2022/02/20 02:04:37;;;;;;;2.40;0.75;;;;;;;;;;4974881;28;20069;-67
2022/02/20 02:07:03;;;;;;;1.42;0.50;;;;;;;;;;4985458;28;20463;-67
2022/02/20 02:09:29;;;;;;;1.88;0.70;;;;;;;;;;4993299;28;20275;-67
2022/02/20 02:11:56;;;;;;;4.45;0.60;;;;;;;;;;4974163;28;20449;-67
2022/02/20 02:14:22;;;;;;;2.88;0.85;;;;;;;;;;4976805;28;20046;-67
2022/02/20 02:16:48;;;;;;;1.38;0.55;;;;;;;;;;4968352;28;20046;-67
2022/02/20 02:19:15;;;;;;;3.58;0.70;;;;;;;;;;4984097;28;20515;-67
2022/02/20 02:21:41;;;;;;;4.45;0.90;;;;;;;;;;4985600;28;20060;-67
2022/02/20 02:24:08;;;;;;;5.40;1.02;;;;;;;;;;4978477;28;20054;-67
2022/02/20 02:26:35;;;;;;;4.55;0.82;;;;;;;;;;4984544;28;20412;-67
2022/02/20 02:29:01;;;;;;;2.50;0.80;;;;;;;;;;4970288;28;20057;-67
2022/02/20 02:31:28;;;;;;;3.05;0.90;;;;;;;;;;4979860;28;20054;-67
2022/02/20 02:33:54;;;;;;;2.35;0.90;;;;;;;;;;4976827;28;20501;-68
2022/02/20 02:36:20;;;;;;;3.22;1.55;;;;;;;;;;4984992;28;20046;-67
2022/02/20 02:38:47;;;;;;;7.97;1.65;;;;;;;;;;4983807;28;20054;-67
2022/02/20 02:41:14;;;;;;;6.88;1.48;;;;;;;;;;4977478;28;20049;-67
2022/02/20 02:43:40;;;;;;;6.35;1.42;;;;;;;;;;4980361;28;20046;-67
2022/02/20 02:46:06;;;;;;;5.18;1.20;;;;;;;;;;4972506;28;20082;-67
2022/02/20 02:48:33;;;;;;;3.83;1.20;;;;;;;;;;4982040;28;20054;-68
2022/02/20 02:51:01;;;;;;;5.75;1.10;;;;;;;;;;4972836;28;20077;-67
2022/02/20 02:53:29;;;;;;;5.10;0.90;;;;;;;;;;4979256;28;20050;-68
2022/02/20 02:55:55;;;;;;;4.53;1.15;;;;;;;;;;4982662;28;20046;-68
2022/02/20 02:58:24;;;;;;;3.53;0.88;;;;;;;;;;4970495;28;20050;-67
2022/02/20 03:00:50;;;;;;;3.25;0.80;;;;;;;;;;4977107;28;20046;-68
2022/02/20 03:03:17;;;;;;;3.22;1.02;;;;;;;;;;4977919;28;20534;-68
2022/02/20 03:05:43;;;;;;;3.05;0.80;;;;;;;;;;4984726;28;20047;-68
2022/02/20 03:08:10;;;;;;;1.58;0.68;;;;;;;;;;4973440;28;20046;-68
2022/02/20 03:10:37;;;;;;;4.38;0.90;;;;;;;;;;4978252;28;20042;-68
2022/02/20 03:13:03;;;;;;;2.25;0.73;;;;;;;;;;4979492;28;20559;-69
2022/02/20 03:15:30;;;;;;;3.33;0.80;;;;;;;;;;4976937;28;20535;-68
2022/02/20 03:17:56;;;;;;;3.90;0.90;;;;;;;;;;4975432;28;20065;-68
2022/02/20 03:20:22;;;;;;;4.28;1.08;;;;;;;;;;4975768;28;20054;-68
2022/02/20 03:22:49;;;;;;;6.43;0.80;;;;;;;;;;4979327;28;20054;-68
2022/02/20 03:25:15;;;;;;;6.68;1.02;;;;;;;;;;4969731;28;20050;-68
2022/02/20 03:27:41;;;;;;;4.13;1.00;;;;;;;;;;4968483;28;20081;-68
2022/02/20 03:30:08;;;;;;;4.18;1.00;;;;;;;;;;4991817;28;20442;-68
2022/02/20 03:32:34;;;;;;;4.32;0.80;;;;;;;;;;4981134;28;20069;-68
2022/02/20 03:35:01;;;;;;;3.20;0.70;;;;;;;;;;4979953;28;20055;-68
2022/02/20 03:37:28;;;;;;;6.05;0.70;;;;;;;;;;4971174;28;20817;-68
2022/02/20 03:39:54;;;;;;;6.47;0.80;;;;;;;;;;4972128;28;20050;-68
2022/02/20 03:42:20;;;;;;;2.80;0.68;;;;;;;;;;4969643;28;20050;-68
2022/02/20 03:44:47;;;;;;;6.07;1.55;;;;;;;;;;4976892;28;20062;-68
2022/02/20 03:47:13;;;;;;;3.85;0.70;;;;;;;;;;4980805;28;20042;-68
2022/02/20 03:49:39;;;;;;;3.15;0.85;;;;;;;;;;4986669;28;20050;-68
2022/02/20 03:52:06;;;;;;;2.40;0.60;;;;;;;;;;4981798;28;20050;-68
2022/02/20 03:54:32;;;;;;;3.80;0.68;;;;;;;;;;4982747;28;20479;-68
2022/02/20 03:56:58;;;;;;;2.28;0.52;;;;;;;;;;4985326;28;20046;-68
2022/02/20 03:59:24;;;;;;;7.40;1.30;;;;;;;;;;4976631;28;20421;-68
2022/02/20 04:01:51;;;;;;;6.50;0.95;;;;;;;;;;4983050;28;20054;-69
2022/02/20 04:04:17;;;;;;;5.68;1.00;;;;;;;;;;4976201;28;20519;-68
2022/02/20 04:06:43;;;;;;;4.95;1.02;;;;;;;;;;4968961;28;20050;-69
2022/02/20 04:09:12;;;;;;;3.75;1.00;;;;;;;;;;4969702;28;20042;-68
2022/02/20 04:11:38;;;;;;;4.95;1.10;;;;;;;;;;4969787;28;20055;-69
2022/02/20 04:14:04;;;;;;;4.63;0.65;;;;;;;;;;4984672;28;20046;-68
2022/02/20 04:16:30;;;;;;;5.53;1.00;;;;;;;;;;4986859;28;20085;-68
2022/02/20 04:18:57;;;;;;;7.03;0.70;;;;;;;;;;4978551;28;20054;-69
2022/02/20 04:21:24;;;;;;;2.60;0.90;;;;;;;;;;4984983;28;20054;-69
2022/02/20 04:23:50;;;;;;;3.05;0.95;;;;;;;;;;4973933;28;20512;-69
2022/02/20 04:26:16;;;;;;;7.22;1.45;;;;;;;;;;4986464;28;20047;-69
2022/02/20 04:28:43;;;;;;;5.82;1.30;;;;;;;;;;4975647;28;20042;-69
2022/02/20 04:31:09;;;;;;;4.35;1.20;;;;;;;;;;4984429;28;20054;-68
2022/02/20 04:33:35;;;;;;;5.10;1.00;;;;;;;;;;4985471;28;20051;-69
2022/02/20 04:36:02;;;;;;;6.07;1.20;;;;;;;;;;4965866;28;20238;-69
2022/02/20 04:38:29;;;;;;;8.50;1.60;;;;;;;;;;4989631;28;20049;-69
2022/02/20 04:40:55;;;;;;;12.40;1.88;;;;;;;;;;4976116;28;20042;-69
2022/02/20 04:43:21;;;;;;;8.77;1.88;;;;;;;;;;4995715;28;20062;-69
2022/02/20 04:45:47;;;;;;;3.10;1.48;;;;;;;;;;4970318;28;20449;-69
2022/02/20 04:48:14;;;;;;;6.07;1.30;;;;;;;;;;4988927;28;20053;-69
2022/02/20 04:50:40;;;;;;;7.05;1.48;;;;;;;;;;4995458;28;20094;-69
2022/02/20 04:53:06;;;;;;;8.15;1.63;;;;;;;;;;4980782;28;20056;-68
2022/02/20 04:55:33;;;;;;;7.28;1.80;;;;;;;;;;4988908;28;20046;-69
2022/02/20 04:57:59;;;;;;;7.50;1.83;;;;;;;;;;4980007;28;20124;-69
2022/02/20 05:00:25;;;;;;;11.98;1.85;;;;;;;;;;4984413;28;20065;-69
2022/02/20 05:02:51;;;;;;;8.27;1.85;;;;;;;;;;4973894;28;20399;-69
2022/02/20 05:05:18;;;;;;;8.07;1.88;;;;;;;;;;4980564;28;20560;-69
2022/02/20 05:07:44;;;;;;;9.00;2.38;;;;;;;;;;4986989;28;20046;-69
2022/02/20 05:10:10;;;;;;;11.27;2.63;;;;;;;;;;4977256;28;20050;-69
2022/02/20 05:12:37;;;;;;;4.55;2.40;;;;;;;;;;4987052;28;20515;-69
2022/02/20 05:15:03;;;;;;;8.82;3.03;;;;;;;;;;4979328;28;20054;-67
2022/02/20 05:17:30;;;;;;;11.20;2.92;;;;;;;;;;4978175;28;20488;-67
2022/02/20 05:19:56;;;;;;;10.05;2.72;;;;;;;;;;4978224;28;20061;-67
2022/02/20 05:22:22;;;;;;;11.07;3.17;;;;;;;;;;4983675;28;20046;-68
2022/02/20 05:24:50;;;;;;;10.18;3.90;;;;;;;;;;4982562;28;20054;-68
2022/02/20 05:27:16;;;;;;;11.73;4.07;;;;;;;;;;4973524;28;20047;-68
2022/02/20 05:29:43;;;;;;;10.60;4.38;;;;;;;;;;4986695;28;20051;-68
2022/02/20 05:32:09;;;;;;;8.98;4.15;;;;;;;;;;4970225;28;20047;-69
2022/02/20 05:34:35;;;;;;;16.55;5.13;;;;;;;;;;4985316;28;20684;-68
2022/02/20 05:37:02;;;;;;;9.18;4.47;;;;;;;;;;4979967;28;20740;-69
2022/02/20 05:39:28;;;;;;;11.98;4.88;;;;;;;;;;4989801;28;20065;-69
2022/02/20 05:41:56;;;;;;;12.15;4.70;;;;;;;;;;4981218;28;20516;-69
2022/02/20 05:44:22;;;;;;;11.13;4.97;;;;;;;;;;4965279;28;20046;-69
2022/02/20 05:46:48;;;;;;;12.50;5.72;;;;;;;;;;4973786;28;20102;-69
2022/02/20 05:49:15;;;;;;;12.48;5.47;;;;;;;;;;4964836;28;20046;-69
2022/02/20 05:51:41;;;;;;;12.75;5.22;;;;;;;;;;4981970;28;20515;-69
2022/02/20 05:54:07;;;;;;;13.40;5.20;;;;;;;;;;4972413;28;20519;-69
2022/02/20 05:56:33;;;;;;;8.25;4.22;;;;;;;;;;4972735;28;20046;-69
2022/02/20 05:59:00;;;;;;;11.75;5.00;;;;;;;;;;4969647;28;20046;-69
2022/02/20 06:01:27;;;;;;;15.35;5.85;;;;;;;;;;4964913;28;20372;-71
2022/02/20 06:03:53;;;;;;;12.05;5.70;;;;;;;;;;4974294;28;20051;-70
2022/02/20 06:06:19;;;;;;;14.40;6.25;;;;;;;;;;4972909;28;20078;-69
2022/02/20 06:08:45;;;;;;;11.95;4.75;;;;;;;;;;4975148;28;20060;-70
2022/02/20 06:11:12;;;;;;;16.80;5.30;;;;;;;;;;4987120;28;20566;-70
2022/02/20 06:13:38;;;;;;;11.35;4.88;;;;;;;;;;4961005;28;20052;-71
2022/02/20 06:16:04;;;;;;;13.20;5.50;;;;;;;;;;4969862;28;20047;-71
2022/02/20 06:18:31;;;;;;;14.35;5.22;;;;;;;;;;4967620;28;20042;-71
2022/02/20 06:20:57;;;;;;;14.80;5.32;;;;;;;;;;4969768;28;20069;-71
2022/02/20 06:23:23;;;;;;;13.45;4.28;;;;;;;;;;4970294;28;20050;-71
2022/02/20 06:25:50;;;;;;;10.00;3.80;;;;;;;;;;4963314;28;20057;-71
2022/02/20 06:28:16;;;;;;;16.33;5.57;;;;;;;;;;4973851;28;20046;-72
2022/02/20 06:30:42;;;;;;;14.50;4.68;;;;;;;;;;4961038;28;20066;-71
2022/02/20 06:33:09;;;;;;;14.52;5.20;;;;;;;;;;4976473;28;20055;-71
2022/02/20 06:35:36;;;;;;;14.20;5.35;;;;;;;;;;4959735;28;20488;-71
2022/02/20 06:38:02;;;;;;;15.10;5.75;;;;;;;;;;4976968;28;20053;-71
2022/02/20 06:40:28;;;;;;;14.40;4.28;;;;;;;;;;4959347;28;20652;-72
2022/02/20 06:42:54;;;;;;;15.18;4.97;;;;;;;;;;4973658;28;20054;-71
2022/02/20 06:45:21;;;;;;;12.70;5.28;;;;;;;;;;4968113;28;20054;-71
2022/02/20 06:47:47;;;;;;;24.60;6.13;;;;;;;;;;4967419;28;20082;-71
2022/02/20 06:50:13;;;;;;;18.23;6.15;;;;;;;;;;4970923;28;20061;-72
2022/02/20 06:52:40;;;;;;;14.05;4.53;;;;;;;;;;4968474;28;20042;-71
2022/02/20 06:55:07;;;;;;;20.27;5.50;;;;;;;;;;4967339;28;20054;-71
2022/02/20 06:57:36;;;;;;;22.85;4.85;;;;;;;;;;4960564;28;20309;-71
2022/02/20 07:00:08;;;;;;;17.63;4.53;;;;;;;;;;4988407;28;20061;-72
2022/02/20 07:02:34;;;;;;;16.77;4.47;;;;;;;;;;4973835;28;20054;-72
2022/02/20 07:05:00;;;;;;;16.85;4.38;;;;;;;;;;4966639;28;20427;-71
2022/02/20 07:07:27;;;;;;;16.73;5.20;;;;;;;;;;4971698;28;20059;-71
2022/02/20 07:09:53;;;;;;;18.42;4.90;;;;;;;;;;4961630;28;20520;-71
2022/02/20 07:12:20;;;;;;;13.82;3.80;;;;;;;;;;4972246;28;20054;-71
2022/02/20 07:14:46;;;;;;;17.10;4.50;;;;;;;;;;4967969;28;20416;-71
2022/02/20 07:17:12;;;;;;;11.50;3.95;;;;;;;;;;4971779;28;20058;-71
2022/02/20 07:19:39;;;;;;;14.50;3.80;;;;;;;;;;4976465;28;20057;-71
2022/02/20 07:22:05;;;;;;;16.75;4.35;;;;;;;;;;4959377;28;20047;-71
2022/02/20 07:24:32;;;;;;;8.90;3.47;;;;;;;;;;4975087;28;20049;-71
2022/02/20 07:26:58;;;;;;;13.98;3.67;;;;;;;;;;4961345;28;20424;-71
2022/02/20 07:29:24;;;;;;;18.60;4.22;;;;;;;;;;4980199;28;20089;-71
2022/02/20 07:31:50;;;;;;;16.13;3.55;;;;;;;;;;4974978;28;20511;-71
2022/02/20 07:34:17;;;;;;;15.32;3.30;;;;;;;;;;4982155;28;20046;-71
2022/02/20 07:36:43;;;;;;;13.02;3.17;;;;;;;;;;4969248;28;20862;-71
2022/02/20 07:39:10;;;;;;;12.30;3.42;;;;;;;;;;4970466;28;20050;-71
2022/02/20 07:41:38;;;;;;;12.82;3.03;;;;;;;;;;4978505;28;20050;-71
2022/02/20 07:44:05;;;;;;;17.88;3.38;;;;;;;;;;4974240;28;20042;-71
2022/02/20 07:46:31;;;;;;;11.98;3.47;;;;;;;;;;4985609;28;20614;-71
2022/02/20 07:48:58;;;;;;;18.05;3.33;;;;;;;;;;4973717;28;20280;-71
2022/02/20 07:51:24;;;;;;;12.05;3.05;;;;;;;;;;4975871;28;20046;-71
2022/02/20 07:53:51;;;;;;;9.68;2.70;;;;;;;;;;4983411;28;20050;-71
2022/02/20 07:56:17;;;;;;;11.88;2.22;;;;;;;;;;4975499;28;20074;-70
2022/02/20 07:58:44;;;;;;;7.32;2.30;;;;;;;;;;4981541;28;20074;-71
2022/02/20 08:01:10;;;;;;;10.73;2.40;;;;;;;;;;4973722;28;20054;-71
2022/02/20 08:03:37;;;;;;;8.95;2.38;;;;;;;;;;4979694;28;20498;-71
2022/02/20 08:06:03;;;;;;;9.25;2.60;;;;;;;;;;4969201;28;20587;-71
2022/02/20 08:08:30;;;;;;;8.15;2.53;;;;;;;;;;4972962;28;20059;-71
2022/02/20 08:10:57;;;;;;;7.00;2.70;;;;;;;;;;4979383;28;20047;-71
2022/02/20 08:13:23;;;;;;;7.60;2.50;;;;;;;;;;4962662;28;20049;-71
2022/02/20 08:15:51;;;;;;;9.30;2.38;;;;;;;;;;4982718;28;20046;-71
2022/02/20 08:18:18;;;;;;;9.32;2.58;;;;;;;;;;4974568;28;20043;-71
2022/02/20 08:20:44;;;;;;;7.70;2.42;;;;;;;;;;4980623;28;20069;-70
2022/02/20 08:23:31;;;;;;;7.50;2.25;;;;;;;;;;4967056;28;20054;-71
2022/02/20 08:25:57;;;;;;;4.93;2.13;;;;;;;;;;4981168;28;20046;-71
2022/02/20 08:28:23;;;;;;;11.20;2.78;;;;;;;;;;4972810;28;20461;-69
2022/02/20 08:30:49;;;;;;;4.55;2.15;;;;;;;;;;4972230;28;20427;-71
2022/02/20 08:33:16;;;;;;;8.70;2.67;;;;;;;;;;4982339;28;20061;-71
2022/02/20 08:36:02;;;;;;;5.20;2.33;;;;;;;;;;4970527;28;20110;-71
2022/02/20 08:38:28;;;;;;;4.63;2.13;;;;;;;;;;4981955;28;20050;-71
2022/02/20 08:40:55;;;;;;;6.68;3.20;;;;;;;;;;4969117;28;20444;-70
2022/02/20 08:43:21;;;;;;;8.68;2.90;;;;;;;;;;4977244;28;20056;-70
2022/02/20 08:45:48;;;;;;;5.22;2.00;;;;;;;;;;4975962;28;20073;-71
2022/02/20 08:48:15;;;;;;;6.78;2.65;;;;;;;;;;4971436;28;20495;-70
2022/02/20 08:50:44;;;;;;;7.47;2.80;;;;;;;;;;4972203;28;20054;-71
2022/02/20 08:53:11;;;;;;;8.05;3.38;;;;;;;;;;4974162;28;20379;-70
2022/02/20 08:55:38;;;;;;;5.90;2.80;;;;;;;;;;4969309;28;20050;-70
2022/02/20 08:58:04;;;;;;;11.13;3.35;;;;;;;;;;4969561;28;20137;-70
2022/02/20 09:00:31;;;;;;;13.82;3.60;;;;;;;;;;4981789;28;20057;-69
2022/02/20 09:02:57;;;;;;;11.95;3.17;;;;;;;;;;4982450;28;20165;-70
2022/02/20 09:05:24;;;;;;;8.48;3.15;;;;;;;;;;4976720;28;20060;-70
2022/02/20 09:07:50;;;;;;;9.80;3.53;;;;;;;;;;4979170;28;20459;-70
2022/02/20 09:10:17;;;;;;;13.50;4.15;;;;;;;;;;4970166;28;20054;-70
2022/02/20 09:12:43;;;;;;;11.18;3.65;;;;;;;;;;4985743;28;20050;-70
2022/02/20 09:15:10;;;;;;;14.07;3.50;;;;;;;;;;4977447;28;20053;-70
2022/02/20 09:17:37;;;;;;;8.85;3.95;;;;;;;;;;4985103;28;20054;-70
2022/02/20 09:20:05;;;;;;;13.50;3.50;;;;;;;;;;4991316;28;20054;-70
2022/02/20 09:22:31;;;;;;;12.07;4.13;;;;;;;;;;4987043;28;20061;-71
2022/02/20 09:24:57;;;;;;;16.77;5.75;;;;;;;;;;4976294;28;20038;-71
2022/02/20 09:27:24;;;;;;;15.23;5.07;;;;;;;;;;4971853;28;20469;-71
2022/02/20 09:29:50;;;;;;;10.70;4.43;;;;;;;;;;4990503;28;20061;-71
2022/02/20 09:32:20;;;;;;;16.58;5.47;;;;;;;;;;4969898;28;20630;-71
2022/02/20 09:34:46;;;;;;;14.73;6.03;;;;;;;;;;4981384;28;20061;-71
2022/02/20 09:37:17;;;;;;;20.80;5.65;;;;;;;;;;4976945;28;20384;-71
2022/02/20 09:39:44;;;;;;;11.90;4.60;;;;;;;;;;4978773;28;20065;-71
2022/02/20 09:42:10;;;;;;;19.73;5.70;;;;;;;;;;4982276;28;20054;-71
2022/02/20 09:44:36;;;;;;;12.75;5.70;;;;;;;;;;4981549;28;20054;-71
2022/02/20 09:47:04;;;;;;;13.20;5.80;;;;;;;;;;4981506;28;20043;-71
2022/02/20 09:49:30;;;;;;;16.60;5.18;;;;;;;;;;4971558;28;20046;-70
2022/02/20 09:51:57;;;;;;;14.52;5.63;;;;;;;;;;4977546;28;20542;-71
2022/02/20 09:54:23;;;;;;;18.52;5.25;;;;;;;;;;4972811;28;20054;-71
2022/02/20 09:56:50;;;;;;;15.90;5.78;;;;;;;;;;4975112;28;20050;-71
2022/02/20 09:59:16;;;;;;;16.35;5.47;;;;;;;;;;4976986;28;20077;-71
2022/02/20 10:02:03;;;;;;;18.35;5.38;;;;;;;;;;4977077;28;20050;-71
2022/02/20 10:04:48;;;;;;;22.55;5.90;;;;;;;;;;4979198;28;20436;-71
2022/02/20 10:07:25;;;;;;;21.50;6.47;;;;;;;;;;4976193;28;20764;-70
2022/02/20 10:09:52;;;;;;;26.10;6.05;;;;;;;;;;4983588;28;20057;-71
2022/02/20 10:12:22;;;;;;;18.85;6.90;;;;;;;;;;4972944;28;20069;-71
2022/02/20 10:14:48;;;;;;;24.75;6.50;;;;;;;;;;4983715;28;20405;-71
2022/02/20 10:17:17;;;;;;;26.17;6.10;;;;;;;;;;4983682;28;20046;-70
2022/02/20 10:20:13;;;;;;;24.20;6.07;;;;;;;;;;4977170;28;20427;-70
2022/02/20 10:22:39;;;;;;;19.80;5.82;;;;;;;;;;4975972;28;20046;-70
2022/02/20 10:25:09;;;;;;;23.58;5.75;;;;;;;;;;4973162;28;20050;-71
2022/02/20 10:27:45;;;;;;;27.75;6.32;;;;;;;;;;4984639;28;20061;-71
2022/02/20 10:30:24;;;;;;;22.52;6.18;;;;;;;;;;4970325;28;20319;-70
2022/02/20 10:33:02;;;;;;;24.83;5.32;;;;;;;;;;4983617;28;20046;-70
2022/02/20 10:35:33;;;;;;;32.20;6.63;;;;;;;;;;4964881;28;20476;-70
2022/02/20 10:38:05;;;;;;;25.90;5.82;;;;;;;;;;4976003;28;20058;-70
2022/02/20 10:40:31;;;;;;;22.85;5.18;;;;;;;;;;4966282;28;20053;-69
2022/02/20 10:43:00;;;;;;;25.50;6.07;;;;;;;;;;4967269;28;20042;-70
2022/02/20 10:45:33;;;;;;;22.25;5.15;;;;;;;;;;4970174;28;20057;-71
2022/02/20 10:48:00;;;;;;;24.85;5.70;;;;;;;;;;4963349;28;20050;-70
2022/02/20 10:50:28;;;;;;;29.23;5.90;;;;;;;;;;4973986;28;20050;-70
2022/02/20 10:53:14;;;;;;;21.10;5.30;;;;;;;;;;4960173;28;20053;-70
2022/02/20 10:55:45;;;;;;;29.67;6.40;;;;;;;;;;4982514;28;20046;-69
2022/02/20 10:58:15;;;;;;;27.08;5.50;;;;;;;;;;4971052;28;20518;-69
2022/02/20 11:00:49;;;;;;;22.98;4.90;;;;;;;;;;4982491;28;20472;-69
2022/02/20 11:03:17;;;;;;;25.52;6.05;;;;;;;;;;4987630;28;20137;-70
2022/02/20 11:05:43;;;;;;;34.92;5.35;;;;;;;;;;4970981;28;20715;-70
2022/02/20 11:08:10;;;;;;;20.95;4.80;;;;;;;;;;4973014;28;20047;-70
2022/02/20 11:10:38;;;;;;;30.00;5.20;;;;;;;;;;4968409;28;20053;-71
2022/02/20 11:13:05;;;;;;;34.03;7.40;;;;;;;;;;4976393;28;20054;-70
2022/02/20 11:15:32;;;;;;;30.70;6.53;;;;;;;;;;4986774;28;20053;-70
2022/02/20 11:18:00;;;;;;;22.60;4.57;;;;;;;;;;4985966;28;20058;-70
2022/02/20 11:20:30;;;;;;;23.80;4.90;;;;;;;;;;4983261;28;20061;-70
2022/02/20 11:22:59;;;;;;;25.33;4.43;;;;;;;;;;4976307;28;20054;-69
2022/02/20 11:25:26;;;;;;;29.13;5.75;;;;;;;;;;4986546;28;20053;-70
2022/02/20 11:27:52;;;;;;;25.70;4.60;;;;;;;;;;4967781;28;20054;-70
2022/02/20 11:30:19;;;;;;;31.45;5.93;;;;;;;;;;4972629;28;20066;-70
2022/02/20 11:32:47;;;;;;;26.48;5.03;;;;;;;;;;4972049;28;20042;-70
2022/02/20 11:35:14;;;;;;;30.00;5.10;;;;;;;;;;4976103;28;20466;-70
2022/02/20 11:37:49;;;;;;;23.17;4.40;;;;;;;;;;4978136;28;20046;-70
2022/02/20 11:40:16;;;;;;;26.30;4.50;;;;;;;;;;4973195;28;20054;-70
2022/02/20 11:42:58;;;;;;;17.17;3.65;;;;;;;;;;4980279;28;20050;-70
2022/02/20 11:45:25;;;;;;;29.40;5.60;;;;;;;;;;4970414;28;20061;-70
2022/02/20 11:48:10;;;;;;;29.55;4.65;;;;;;;;;;4981981;28;20047;-70
2022/02/20 11:50:43;;;;;;;21.92;4.03;;;;;;;;;;4970708;28;20042;-71
2022/02/20 11:53:10;;;;;;;23.80;5.50;;;;;;;;;;4977393;28;20058;-70
2022/02/20 11:55:41;;;;;;;23.10;4.20;;;;;;;;;;4969289;28;20538;-70
2022/02/20 11:58:10;;;;;;;21.33;4.50;;;;;;;;;;4985673;28;20050;-70
2022/02/20 12:00:37;;;;;;;21.38;4.00;;;;;;;;;;4976213;28;20181;-69
2022/02/20 12:03:04;;;;;;;25.73;4.78;;;;;;;;;;4982253;28;20051;-70
2022/02/20 12:05:31;;;;;;;25.85;4.97;;;;;;;;;;4982594;28;20050;-70
2022/02/20 12:07:58;;;;;;;18.08;3.80;;;;;;;;;;4966477;28;20042;-69
2022/02/20 12:10:24;;;;;;;23.15;3.67;;;;;;;;;;4980469;28;20460;-69
2022/02/20 12:12:53;;;;;;;25.80;4.53;;;;;;;;;;4971309;28;20057;-70
2022/02/20 12:15:39;;;;;;;20.73;4.85;;;;;;;;;;4970147;28;20050;-70
2022/02/20 12:18:08;;;;;;;20.02;3.95;;;;;;;;;;4972027;28;20046;-69
2022/02/20 12:20:50;;;;;;;17.95;3.92;;;;;;;;;;4976333;28;20389;-69
2022/02/20 12:23:32;;;;;;;21.30;3.72;;;;;;;;;;4974573;28;20061;-69
2022/02/20 12:26:00;;;;;;;24.05;4.78;;;;;;;;;;4980857;28;20046;-70
2022/02/20 12:28:33;;;;;;;21.33;4.45;;;;;;;;;;4987310;28;20050;-69
2022/02/20 12:31:10;;;;;;;21.85;4.40;;;;;;;;;;4962897;28;20555;-70
2022/02/20 12:33:37;;;;;;;20.02;4.38;;;;;;;;;;4980575;28;20064;-70
2022/02/20 12:36:04;;;;;;;21.25;4.55;;;;;;;;;;4971320;28;20508;-70
2022/02/20 12:38:30;;;;;;;22.48;5.18;;;;;;;;;;4984539;28;20055;-70
2022/02/20 12:40:56;;;;;;;21.88;4.68;;;;;;;;;;4973165;28;20057;-70
2022/02/20 12:43:23;;;;;;;23.17;4.78;;;;;;;;;;4987112;28;20076;-69
2022/02/20 12:45:49;;;;;;;23.45;4.93;;;;;;;;;;4985667;28;20156;-70
2022/02/20 12:48:16;;;;;;;25.13;5.00;;;;;;;;;;4981776;28;20495;-70
2022/02/20 12:50:47;;;;;;;23.00;4.00;;;;;;;;;;4978023;28;20057;-70
2022/02/20 12:53:14;;;;;;;21.67;4.78;;;;;;;;;;4979134;28;20054;-70
2022/02/20 12:55:41;;;;;;;23.15;4.72;;;;;;;;;;4983499;28;20375;-71
2022/02/20 12:58:08;;;;;;;25.33;5.55;;;;;;;;;;4967943;28;20073;-71
2022/02/20 13:00:36;;;;;;;20.25;4.90;;;;;;;;;;4984796;28;20046;-71
2022/02/20 13:03:02;;;;;;;17.83;4.70;;;;;;;;;;4982545;28;20518;-71
2022/02/20 13:05:33;;;;;;;22.55;4.22;;;;;;;;;;4974029;28;20086;-71
2022/02/20 13:08:01;;;;;;;21.40;4.65;;;;;;;;;;4985809;28;20595;-70
2022/02/20 13:10:27;;;;;;;17.13;4.15;;;;;;;;;;4980060;28;20504;-70
2022/02/20 13:13:02;;;;;;;27.42;5.22;;;;;;;;;;4985325;28;20146;-71
2022/02/20 13:15:31;;;;;;;23.88;5.40;;;;;;;;;;4963790;28;20050;-71
2022/02/20 13:18:10;;;;;;;23.38;4.50;;;;;;;;;;4979379;28;20048;-71
2022/02/20 13:20:37;;;;;;;17.92;4.10;;;;;;;;;;4977933;28;20053;-71
2022/02/20 13:23:20;;;;;;;24.52;4.20;;;;;;;;;;4979187;28;20050;-71
2022/02/20 13:25:47;;;;;;;18.88;4.35;;;;;;;;;;4982741;28;20064;-71
2022/02/20 13:28:21;;;;;;;19.52;4.15;;;;;;;;;;4977676;28;20046;-71
2022/02/20 13:30:48;;;;;;;15.32;3.67;;;;;;;;;;4975381;28;20049;-71
2022/02/20 13:33:15;;;;;;;20.05;4.10;;;;;;;;;;4975418;28;20170;-71
2022/02/20 13:35:43;;;;;;;21.65;4.22;;;;;;;;;;4982478;28;20467;-72
2022/02/20 13:38:11;;;;;;;24.50;4.03;;;;;;;;;;4980013;28;20054;-71
2022/02/20 13:40:40;;;;;;;18.58;4.10;;;;;;;;;;4983378;28;20069;-71
2022/02/20 13:43:08;;;;;;;21.13;4.18;;;;;;;;;;4985119;28;20057;-71
2022/02/20 13:45:36;;;;;;;24.00;4.72;;;;;;;;;;4972791;28;20431;-71
2022/02/20 13:48:21;;;;;;;23.92;4.72;;;;;;;;;;4974635;28;20061;-71
2022/02/20 13:50:47;;;;;;;15.60;3.90;;;;;;;;;;4973418;28;20046;-71
2022/02/20 13:53:14;;;;;;;19.55;4.30;;;;;;;;;;4985560;28;20042;-70
2022/02/20 13:55:51;;;;;;;15.40;3.70;;;;;;;;;;4975456;28;20057;-70
2022/02/20 13:58:19;;;;;;;29.15;5.00;;;;;;;;;;4979437;28;20423;-71
2022/02/20 14:00:55;;;;;;;23.42;4.95;;;;;;;;;;4972281;28;20530;-71
2022/02/20 14:03:22;;;;;;;25.05;4.45;;;;;;;;;;4982778;28;20133;-71
2022/02/20 14:05:52;;;;;;;19.55;4.03;;;;;;;;;;4992975;28;20051;-71
2022/02/20 14:08:18;;;;;;;21.00;4.18;;;;;;;;;;4972222;28;20046;-71
2022/02/20 14:10:56;;;;;;;22.38;4.13;;;;;;;;;;4978031;28;20038;-71
2022/02/20 14:13:23;;;;;;;26.20;4.13;;;;;;;;;;4969409;28;20053;-71
2022/02/20 14:15:57;;;;;;;17.42;4.35;;;;;;;;;;4999753;28;20125;-71
2022/02/20 14:18:23;;;;;;;15.02;4.07;;;;;;;;;;4977538;28;20518;-71
2022/02/20 14:20:52;;;;;;;24.23;4.50;;;;;;;;;;4984727;28;20053;-72
2022/02/20 14:23:19;;;;;;;16.95;3.97;;;;;;;;;;4984016;28;20042;-71
2022/02/20 14:25:47;;;;;;;19.17;3.67;;;;;;;;;;4969149;28;20574;-71
2022/02/20 14:28:32;;;;;;;18.25;3.78;;;;;;;;;;4985817;28;20057;-71
2022/02/20 14:31:08;;;;;;;21.40;4.45;;;;;;;;;;4975400;28;20057;-72
2022/02/20 14:33:38;;;;;;;16.02;3.53;;;;;;;;;;4982593;28;20077;-71
2022/02/20 14:36:06;;;;;;;19.52;4.25;;;;;;;;;;4975666;28;20050;-72
2022/02/20 14:38:37;;;;;;;15.52;3.45;;;;;;;;;;4990272;28;20058;-71